nws-alerts: Checking more than four warning/county codes can delay the loading of your pages. You should use a cron job to get the data.

Nearby METAR Weather Reports

 

KETB - West Bend, WI
Distance from station: E 4mi, 6km
Updated: 10/16/2021 9:15am
NOT Current

 Wind from W
Wind: W 14 mph , 22 km/h
Barometer: 29.95 inHg , 1014.2 hPa
2021/10/16 14:15 KETB 161415Z AUTO 28012KT A2995 RMK AO2 PWINO
KFLD - Fond Du Lac, WI
Distance from station: W 34mi, 54km
Updated: 10/24/2021 6:53am
Clear
Clear
 Wind from calm
Wind: Calm
Temperature: 32°F , 0°C
Dew Point: 27°F , -3°C
Humidity: 80%
Barometer: 30.01 inHg , 1016.3 hPa
Clouds: Clear
Visibility: 10 miles , 16 km
2021/10/24 11:53 KFLD 241153Z AUTO 00000KT 10SM CLR 00/M03 A3001 RMK AO2 SLP170 I1000 I6000 T00001028 10017 21006 55005
 
KSBM - Sheboygan, WI
Distance from station: NE 36mi, 57km
Updated: 10/24/2021 6:53am
Clear
Clear
 Wind from calm
Wind: Calm
Temperature: 30°F , -1°C
Dew Point: 28°F , -2°C
Humidity: 93%
Barometer: 30.01 inHg , 1016.3 hPa
Clouds: Clear
Visibility: 10 miles , 16 km
2021/10/24 11:53 KSBM 241153Z AUTO 00000KT 10SM CLR M01/M02 A3001 RMK AO2 SLP169 I1000 I6000 T10111017 10011 21011 58005
KMKE - Milwaukee, WI
Distance from station: S 44mi, 70km
Updated: 10/24/2021 6:52am
Mostly cloudy
Mostly cloudy
 Wind from WNW
Wind: WNW 3 mph , 6 km/h
Temperature: 39°F , 4°C
Dew Point: 32°F , 0°C
Humidity: 75%
Barometer: 29.99 inHg , 1015.6 hPa
Clouds: Mostly cloudy
Visibility: 10 miles , 16 km
Cloud details: Few Clouds 3400 ft
Partly cloudy 21000 ft
Mostly cloudy 25000 ft
2021/10/24 11:52 KMKE 241152Z 29003KT 10SM FEW034 SCT210 BKN250 04/00 A2999 RMK AO2 SLP160 T00440000 10061 20033 58007
 
KOSH - Oshkosh, WI
Distance from station: WNW 52mi, 83km
Updated: 10/24/2021 6:53am
Clear
Clear
 Wind from calm
Wind: Calm
Temperature: 30°F , -1°C
Dew Point: 28°F , -2°C
Humidity: 93%
Barometer: 30.00 inHg , 1015.9 hPa
Clouds: Clear
Visibility: 10 miles , 16 km
2021/10/24 11:53 KOSH 241153Z 00000KT 10SM CLR M01/M02 A3000 RMK AO2 SLP170 T10061017 10044 21011 56005
KENW - Kenosha, WI
Distance from station: SSE 69mi, 111km
Updated: 10/24/2021 6:53am
Clear
Clear
 Wind from calm
Wind: Calm
Temperature: 37°F , 3°C
Dew Point: 32°F , 0°C
Humidity: 81%
Barometer: 29.99 inHg , 1015.6 hPa
Clouds: Clear
Visibility: 10 miles , 16 km
2021/10/24 11:53 KENW 241153Z 00000KT 10SM CLR 03/00 A2999 RMK AO2 SLP160 I6000 T00280000 10033 21006 55006
 
KMSN - Madison, WI
Distance from station: SW 69mi, 111km
Updated: 10/24/2021 6:53am
Mostly cloudy
Mostly cloudy
 Wind from calm
Wind: Calm
Temperature: 32°F , 0°C
Dew Point: 30°F , -1°C
Humidity: 93%
Barometer: 29.98 inHg , 1015.2 hPa
Clouds: Mostly cloudy
Visibility: 10 miles , 16 km
Cloud details: Few Clouds 12000 ft
Mostly cloudy 25000 ft
2021/10/24 11:53 KMSN 241153Z 00000KT 10SM FEW120 BKN250 00/M01 A2998 RMK AO2 SLP159 T00001011 10006 21011 55007
KSAW - Marquette, MI
Distance from station: N 262mi, 421km
Updated: 10/24/2021 7:45am
Mostly cloudy
Mostly cloudy
 Wind from WNW
Wind: WNW 3 mph , 6 km/h
Temperature: 30°F , -1°C
Dew Point: 28°F , -2°C
Humidity: 93%
Barometer: 30.01 inHg , 1016.3 hPa
Clouds: Mostly cloudy
Visibility: 10 miles , 16 km
Cloud details: Partly cloudy 2700 ft
Partly cloudy 3200 ft
Mostly cloudy 6000 ft
2021/10/24 12:45 KSAW 241245Z 29003KT 10SM SCT027 SCT032 BKN060 M01/M02 A3001
 
KIMT - Iron Mountain, MI
Distance from station: NNW 201mi, 323km
Updated: 10/24/2021 6:54am
Clear
Clear
 Wind from calm
Wind: Calm
Temperature: 27°F , -3°C
Dew Point: 23°F , -5°C
Humidity: 86%
Barometer: 30.00 inHg , 1015.9 hPa
Clouds: Clear
Visibility: 9 miles , 14 km
2021/10/24 11:54 KIMT 241154Z AUTO 00000KT 9SM CLR M03/M05 A3000 RMK AO2 SLP172 I1001 I6003 T10281050 11006 21039 53004
KGRB - Green Bay, WI
Distance from station: NNW 87mi, 140km
Updated: 10/24/2021 6:53am
Clear
Clear
 Wind from N
Wind: N 3 mph , 6 km/h
Temperature: 28°F , -2°C
Dew Point: 25°F , -4°C
Humidity: 86%
Barometer: 30.02 inHg , 1016.6 hPa
Clouds: Clear
Visibility: 10 miles , 16 km
2021/10/24 11:53 KGRB 241153Z 35003KT 10SM CLR M02/M04 A3002 RMK AO2 SLP174 I1000 I6000 T10221039 10006 21022 55004
 
KAUW - Wausau, WI
Distance from station: NW 155mi, 249km
Updated: 10/24/2021 6:54am
Clear
Clear
 Wind from calm
Wind: Calm
Temperature: 28°F , -2°C
Dew Point: 27°F , -3°C
Humidity: 93%
Barometer: 30.01 inHg , 1016.3 hPa
Clouds: Clear
Visibility: 10 miles , 16 km
2021/10/24 11:54 KAUW 241154Z AUTO 00000KT 10SM CLR M02/M03 A3001 RMK AO2 SLP178 I1000 I6000 T10171033 10000 21017 53002
KORD - Chicago O'Hare, IL
Distance from station: S 113mi, 181km
Updated: 10/24/2021 6:51am
Mostly cloudy
Mostly cloudy
 Wind from S
Wind: S 3 mph , 6 km/h
Temperature: 43°F , 6°C
Dew Point: 37°F , 3°C
Humidity: 81%
Barometer: 29.97 inHg , 1014.9 hPa
Clouds: Mostly cloudy
Visibility: 10 miles , 16 km
Cloud details: Few Clouds 3000 ft
Mostly cloudy 21000 ft
2021/10/24 11:51 KORD 241151Z 17003KT 10SM FEW030 BKN210 06/03 A2997 RMK AO2 SLP151 T00610033 10061 20039 58007 $
 
KVOK - WIANG Volk Field, Camp Douglas, WI
Distance from station: WNW 120mi, 193km
Updated: 10/24/2021 7:16am
Mist, Clear
Mist, Clear
 Wind from calm
Wind: Calm
Temperature: 23°F , -5°C
Dew Point: 21°F , -6°C
Humidity: 93%
Barometer: 29.99 inHg , 1015.6 hPa
Summary: Mist
Clouds: Clear
Visibility: 3 miles , 5 km
2021/10/24 12:16 KVOK 241216Z AUTO 00000KT 3SM BR CLR M05/M06 A2999 RMK AO2 SLP171
KLNR - Lone Rock, WI
Distance from station: W 114mi, 183km
Updated: 10/24/2021 6:56am
Clear
Clear
 Wind from E
Wind: E 3 mph , 6 km/h
Temperature: 30°F , -1°C
Dew Point: 28°F , -2°C
Humidity: 93%
Barometer: 29.98 inHg , 1015.2 hPa
Clouds: Clear
Visibility: 10 miles , 16 km
2021/10/24 11:56 KLNR 241156Z AUTO 08003KT 10SM CLR M01/M02 A2998 RMK AO2 SLP153 I6000 T10111022 11006 21017 55009 $